Currently 68°F in Riverside (Presidential Park), California, USA
68°F
71°F / 68°F
5 mph NE
0.00"
Saturday, April 29, 2017 2:15 AM PDT

Riverside (Presidential Park), California Weather Summary
Last 36 Hours

Temperature Winds Hourly Humidity Dewpoint
Time Report Norm Report Norm Max Gusts Precip. Rpt. Norm Rpt. Norm Pressure
1Sat 02:15 AM  68.1°F  59°F  5 mph NE  1 mph  15 mph  0.00"  14%  67%  16°F  47°F  29.94"
Sat 02:00 AM  68.4°F  59°F  5 mph SW  2 mph  26 mph  0.00"  14%  67%  15°F  47°F  29.93"
3Sat 01:11 AM  67.9°F  60°F  4 mph SE  2 mph  9 mph  ----  15%  65%  16°F  47°F  29.92"
Sat 01:00 AM  68.4°F  60°F  4 mph NE  2 mph  13 mph  0.00"  15%  65%  16°F  47°F  29.91"
2Sat 12:05 AM  70.6°F  61°F  6 mph SE  2 mph  12 mph  ----  13%  62%  15°F  48°F  29.89"
Sat 12:00 AM  70.5°F  61°F  2 mph SE  2 mph  18 mph  0.00"  13%  62%  15°F  48°F  29.88"
Fri 11:00 PM  71.8°F  63°F  8 mph S  2 mph  21 mph  0.00"  13%  58%  16°F  48°F  29.84"
Fri 10:00 PM  71.3°F  65°F  10 mph NW  3 mph  15 mph  0.00"  19%  53%  26°F  47°F  29.82"
Fri 09:00 PM  70.7°F  67°F  3 mph NE  3 mph  7 mph  0.00"  27%  49%  34°F  47°F  29.79"
Fri 08:00 PM  74.5°F  70°F  2 mph SW  4 mph  11 mph  0.00"  21%  45%  31°F  47°F  29.76"
Fri 07:00 PM  76.4°F  73°F  3 mph W  7 mph  17 mph  0.00"  19%  40%  29°F  46°F  29.73"
Fri 06:00 PM  78.5°F  75°F  8 mph SW  8 mph  19 mph  0.00"  19%  37%  31°F  46°F  29.71"
Fri 05:00 PM  80.1°F  77°F  9 mph W  9 mph  17 mph  0.00"  19%  35%  32°F  46°F  29.70"
Fri 04:00 PM  80.3°F  78°F  5 mph W  9 mph  12 mph  0.00"  19%  33%  33°F  46°F  29.71"
Fri 03:00 PM  80.1°F  79°F  4 mph W  8 mph  14 mph  0.00"  18%  32%  32°F  46°F  29.73"
Fri 02:00 PM  79.5°F  78°F  2 mph W  7 mph  17 mph  0.00"  19%  33%  32°F  45°F  29.75"
Fri 01:00 PM  79.7°F  77°F  7 mph NE  6 mph  26 mph  0.00"  17%  34%  30°F  46°F  29.77"
Fri 12:00 PM  77.3°F  74°F  4 mph E  5 mph  23 mph  0.00"  21%  38%  33°F  46°F  29.79"
Fri 11:00 AM  75.3°F  72°F  10 mph SW  4 mph  19 mph  0.00"  22%  44%  32°F  48°F  29.79"
Fri 10:00 AM  68.4°F  69°F  6 mph W  3 mph  11 mph  0.00"  45%  50%  45°F  49°F  29.78"
Fri 09:00 AM  64.9°F  65°F  5 mph SW  2 mph  5 mph  0.00"  57%  58%  49°F  49°F  29.79"
Fri 08:00 AM  59.4°F  60°F  2 mph W  2 mph  4 mph  0.00"  68%  66%  48°F  48°F  29.79"
Fri 07:00 AM  55.0°F  56°F  2 mph E  1 mph  5 mph  0.00"  76%  72%  47°F  47°F  29.77"
Fri 06:00 AM  55.7°F  56°F  3 mph SE  1 mph  5 mph  0.00"  77%  71%  48°F  47°F  29.75"
Fri 05:00 AM  56.8°F  57°F  calm  1 mph  6 mph  0.00"  74%  71%  48°F  47°F  29.73"
Fri 04:00 AM  59.1°F  57°F  3 mph SE  2 mph  5 mph  0.00"  74%  70%  50°F  47°F  29.72"
Fri 03:00 AM  60.0°F  58°F  calm  2 mph  9 mph  0.00"  73%  69%  51°F  47°F  29.71"
Fri 02:00 AM  61.3°F  59°F  5 mph E  2 mph  10 mph  0.00"  68%  68%  50°F  48°F  29.72"
Fri 01:00 AM  62.7°F  60°F  6 mph E  2 mph  8 mph  0.00"  65%  66%  50°F  48°F  29.73"
Fri 12:00 AM  65.0°F  61°F  4 mph E  2 mph  7 mph  0.00"  62%  63%  51°F  48°F  29.73"
Thu 11:00 PM  66.6°F  63°F  1 mph SE  2 mph  7 mph  0.00"  60%  59%  52°F  48°F  29.72"
Thu 10:00 PM  68.9°F  65°F  calm  3 mph  9 mph  0.00"  46%  55%  46°F  47°F  29.73"
Thu 09:00 PM  70.7°F  67°F  calm  3 mph  6 mph  0.00"  45%  50%  47°F  47°F  29.72"
Thu 08:00 PM  72.4°F  69°F  3 mph W  5 mph  7 mph  0.00"  41%  47%  46°F  47°F  29.71"
Thu 07:00 PM  74.2°F  72°F  3 mph NW  7 mph  10 mph  0.00"  38%  42%  46°F  47°F  29.71"
Thu 06:00 PM  75.2°F  75°F  4 mph SW  8 mph  14 mph  0.00"  40%  38%  48°F  46°F  29.72"
Thu 05:00 PM  75.5°F  76°F  5 mph W  9 mph  13 mph  0.00"  38%  36%  47°F  46°F  29.72"
Thu 04:00 PM  73.6°F  78°F  7 mph W  9 mph  15 mph  0.00"  46%  34%  51°F  46°F  29.73"
Thu 03:00 PM  75.9°F  78°F  5 mph W  8 mph  16 mph  0.00"  44%  33%  52°F  46°F  29.72"

  1. Current weather data. No green row appears if the current weather data is also the high or low for the current day.
  2. High temperature for the current day.
  3. Low temperature for the current day.

The Riverside (Presidential Park), California weather pages are a service of WeatherCurrents.
Copyright ©Sat Apr 29 02:16:59 PDT 2017  WeatherCurrents. All rights reserved. - Submit questions and comments - Privacy Policy

This page automatically refreshes every 10 minutes.